Time;durP1;ratioP1;P1;durP2;ratioP2;P2;SDS_P1;SDS_P2;PMS_P1;PMS_P2;Temp;Humidity;BMP_temperature;BMP_pressure;BME280_temperature;BME280_humidity;BME280_pressure;Samples;Min_cycle;Max_cycle;Signal;HPM_P1;HPM_P2
2023/06/18 04:31:17;;;;;;;12.05;8.45;;;20.10;77.90;;;;;;5515195;23;20059;-82
2023/06/18 04:33:43;;;;;;;14.98;9.02;;;20.10;77.50;;;;;;4966266;28;20026;-83
2023/06/18 04:36:09;;;;;;;13.35;8.98;;;20.20;77.70;;;;;;4936436;29;20034;-82
2023/06/18 04:38:37;;;;;;;13.75;8.93;;;20.30;77.90;;;;;;4951920;29;20118;-82
2023/06/18 04:41:02;;;;;;;13.75;8.80;;;20.30;77.10;;;;;;4953439;29;20086;-82
2023/06/18 04:43:28;;;;;;;12.63;8.50;;;20.30;76.50;;;;;;4953658;29;20035;-82
2023/06/18 04:45:54;;;;;;;16.65;9.23;;;20.30;76.70;;;;;;4953528;29;20035;-82
2023/06/18 04:48:20;;;;;;;13.07;8.65;;;20.30;76.60;;;;;;4952457;29;20059;-82
2023/06/18 04:50:46;;;;;;;15.15;8.80;;;20.30;77.00;;;;;;4953410;29;20513;-82
2023/06/18 04:53:12;;;;;;;14.10;10.23;;;20.20;77.90;;;;;;4953549;29;20033;-80
2023/06/18 04:55:38;;;;;;;14.35;9.77;;;20.20;77.80;;;;;;4953717;29;20038;-83
2023/06/18 04:58:04;;;;;;;15.10;10.73;;;20.20;78.00;;;;;;4935606;29;20028;-82
2023/06/18 05:00:31;;;;;;;13.57;9.27;;;20.20;77.70;;;;;;4952287;28;21747;-82
2023/06/18 05:03:00;;;;;;;14.02;9.65;;;20.20;78.10;;;;;;4958184;28;20035;-83
2023/06/18 05:05:26;;;;;;;14.52;9.07;;;20.30;77.80;;;;;;4966974;28;20102;-83
2023/06/18 05:07:52;;;;;;;17.83;9.90;;;20.10;79.00;;;;;;4945513;29;20031;-82
2023/06/18 05:10:17;;;;;;;17.77;10.50;;;20.10;79.20;;;;;;4961228;28;20199;-82
2023/06/18 05:12:43;;;;;;;15.88;10.63;;;20.20;78.50;;;;;;4958174;29;20901;-80
2023/06/18 05:15:09;;;;;;;16.75;9.82;;;20.30;78.20;;;;;;4957523;29;20028;-82
2023/06/18 05:17:35;;;;;;;16.17;10.32;;;20.30;78.70;;;;;;4959084;29;20023;-82
2023/06/18 05:20:03;;;;;;;14.00;9.93;;;20.30;78.80;;;;;;4970089;28;20144;-82
2023/06/18 05:22:28;;;;;;;16.27;11.20;;;20.30;78.90;;;;;;4957115;29;20049;-83
2023/06/18 05:24:55;;;;;;;16.23;9.95;;;20.30;78.60;;;;;;4972591;28;20098;-83
2023/06/18 05:27:21;;;;;;;16.65;9.82;;;20.30;77.90;;;;;;4965054;28;20031;-82
2023/06/18 05:29:46;;;;;;;15.80;10.40;;;20.30;77.70;;;;;;4940246;29;20028;-82
2023/06/18 05:32:12;;;;;;;13.93;9.65;;;20.40;77.90;;;;;;4959163;29;20051;-82
2023/06/18 05:34:37;;;;;;;14.77;9.80;;;20.50;77.30;;;;;;4959257;28;20034;-83
2023/06/18 05:37:03;;;;;;;15.00;9.45;;;20.50;76.50;;;;;;4953147;28;20030;-82
2023/06/18 05:39:29;;;;;;;17.88;9.40;;;20.60;77.20;;;;;;4979314;28;20037;-82
2023/06/18 05:41:54;;;;;;;15.07;9.80;;;20.70;76.70;;;;;;4955528;29;20268;-82
2023/06/18 05:44:20;;;;;;;16.35;10.05;;;20.80;76.10;;;;;;4942811;29;20034;-79
2023/06/18 05:46:45;;;;;;;14.07;9.18;;;20.80;76.30;;;;;;4960090;29;20059;-82
2023/06/18 05:49:11;;;;;;;16.73;10.32;;;20.90;75.80;;;;;;4942314;29;20028;-83
2023/06/18 05:51:37;;;;;;;16.77;9.98;;;20.80;76.00;;;;;;4951327;29;20036;-80
2023/06/18 05:54:02;;;;;;;16.50;10.25;;;20.90;75.80;;;;;;4942391;29;20023;-82
2023/06/18 05:56:28;;;;;;;12.30;9.10;;;20.90;75.60;;;;;;4960003;28;20035;-82
2023/06/18 05:58:54;;;;;;;15.70;10.23;;;20.90;75.60;;;;;;4942018;29;20422;-83
2023/06/18 06:01:20;;;;;;;15.27;10.52;;;20.80;75.90;;;;;;4945477;29;20042;-83
2023/06/18 06:03:45;;;;;;;14.95;10.02;;;20.80;75.90;;;;;;4959721;29;20027;-84
2023/06/18 06:06:11;;;;;;;17.33;10.77;;;20.80;76.40;;;;;;4965823;28;20037;-84
2023/06/18 06:08:37;;;;;;;16.08;10.63;;;20.90;76.20;;;;;;4978546;28;20040;-83
2023/06/18 06:11:02;;;;;;;15.27;9.93;;;20.90;75.80;;;;;;4977473;28;20039;-81
2023/06/18 06:13:28;;;;;;;14.32;9.90;;;21.00;76.70;;;;;;4972317;28;20023;-81
2023/06/18 06:15:53;;;;;;;14.82;10.15;;;21.10;76.20;;;;;;4946079;29;20042;-81
2023/06/18 06:18:19;;;;;;;18.33;9.75;;;21.20;75.20;;;;;;4959205;29;20031;-81
2023/06/18 06:20:45;;;;;;;16.35;10.35;;;21.30;74.70;;;;;;4962518;28;20030;-81
2023/06/18 06:23:10;;;;;;;17.58;10.18;;;21.30;75.20;;;;;;4942091;29;20063;-80
2023/06/18 06:25:36;;;;;;;14.77;9.88;;;21.40;75.00;;;;;;4955885;28;20110;-80
2023/06/18 06:28:02;;;;;;;15.13;9.60;;;21.60;74.70;;;;;;4953136;28;20039;-80
2023/06/18 06:30:28;;;;;;;14.98;10.15;;;21.60;74.90;;;;;;4957061;28;20094;-79
2023/06/18 06:32:53;;;;;;;13.18;9.90;;;21.60;74.00;;;;;;4955238;28;20035;-81
2023/06/18 06:35:19;;;;;;;14.98;9.43;;;21.50;74.20;;;;;;4941629;29;20078;-79
2023/06/18 06:37:45;;;;;;;14.90;9.40;;;21.40;74.70;;;;;;4967936;28;20111;-78
2023/06/18 06:40:11;;;;;;;14.70;9.40;;;21.30;74.90;;;;;;4958794;29;20523;-84
2023/06/18 06:42:37;;;;;;;15.55;9.40;;;21.30;75.00;;;;;;4959099;29;20027;-82
2023/06/18 06:45:03;;;;;;;18.20;9.70;;;21.10;75.30;;;;;;4959013;29;20033;-81
2023/06/18 06:47:28;;;;;;;15.23;9.68;;;21.10;75.30;;;;;;4958250;29;20055;-82
2023/06/18 06:49:54;;;;;;;13.43;8.77;;;21.10;75.70;;;;;;4958669;29;20035;-80
2023/06/18 06:52:20;;;;;;;12.23;9.02;;;21.00;75.90;;;;;;4958888;29;20126;-88
2023/06/18 06:54:47;;;;;;;13.13;9.10;;;21.00;75.70;;;;;;4941444;29;20033;-80
2023/06/18 06:57:13;;;;;;;15.82;9.32;;;21.00;75.90;;;;;;4937084;29;20548;-79
2023/06/18 06:59:38;;;;;;;13.02;8.73;;;20.90;75.70;;;;;;4947472;28;20034;-79
2023/06/18 07:02:04;;;;;;;14.10;9.20;;;20.90;76.00;;;;;;4954991;28;20037;-78
2023/06/18 07:04:30;;;;;;;15.07;8.98;;;20.90;76.00;;;;;;4939406;28;20568;-82
2023/06/18 07:06:56;;;;;;;13.43;7.90;;;20.90;75.70;;;;;;4954926;28;20035;-77
2023/06/18 07:09:21;;;;;;;15.80;9.05;;;20.80;76.10;;;;;;4951822;28;21578;-82
2023/06/18 07:11:47;;;;;;;11.85;8.20;;;20.80;75.60;;;;;;4958404;28;20043;-78
2023/06/18 07:14:12;;;;;;;11.23;7.85;;;20.80;75.70;;;;;;4954165;28;20090;-78
2023/06/18 07:16:38;;;;;;;12.65;8.30;;;20.80;76.00;;;;;;4933727;29;20027;-79
2023/06/18 07:19:04;;;;;;;14.63;8.57;;;20.80;76.80;;;;;;4934545;29;20031;-78
2023/06/18 07:21:30;;;;;;;14.82;9.13;;;20.80;76.60;;;;;;4957504;28;20457;-78
2023/06/18 07:23:56;;;;;;;13.68;9.02;;;20.80;76.10;;;;;;4958087;28;20076;-78
2023/06/18 07:26:22;;;;;;;12.32;8.55;;;20.70;76.40;;;;;;4943486;28;20027;-78
2023/06/18 07:28:48;;;;;;;15.50;8.50;;;20.70;76.70;;;;;;4957782;28;20055;-78
2023/06/18 07:31:14;;;;;;;15.90;9.68;;;20.60;77.30;;;;;;4957486;28;20110;-78
2023/06/18 07:33:39;;;;;;;15.63;9.55;;;20.60;78.20;;;;;;4956673;28;20047;-78
2023/06/18 07:36:05;;;;;;;17.48;9.27;;;20.50;78.60;;;;;;4955491;28;20035;-76
2023/06/18 07:38:31;;;;;;;14.13;9.60;;;20.50;78.50;;;;;;4933149;29;20041;-75
2023/06/18 07:40:56;;;;;;;13.82;9.25;;;20.40;78.20;;;;;;4955540;28;20020;-76
2023/06/18 07:43:22;;;;;;;15.60;9.27;;;20.40;78.50;;;;;;4956492;28;20110;-78
2023/06/18 07:45:48;;;;;;;13.75;9.70;;;20.40;78.40;;;;;;4958456;28;20019;-78
2023/06/18 07:48:14;;;;;;;13.05;9.02;;;20.40;78.10;;;;;;4961029;28;20150;-75
2023/06/18 07:50:40;;;;;;;17.38;9.18;;;20.50;77.90;;;;;;4957472;29;20019;-77
2023/06/18 07:53:06;;;;;;;15.57;9.23;;;20.60;78.10;;;;;;4957472;28;20437;-78
2023/06/18 07:55:31;;;;;;;14.63;8.98;;;20.60;78.10;;;;;;4965468;28;20136;-82
2023/06/18 07:57:57;;;;;;;16.63;9.18;;;20.70;77.70;;;;;;4940153;29;20834;-80
2023/06/18 08:00:22;;;;;;;14.65;9.20;;;20.70;77.60;;;;;;4956189;29;20097;-78
2023/06/18 08:02:48;;;;;;;14.90;9.40;;;20.80;77.70;;;;;;4956694;29;20383;-79
2023/06/18 08:05:14;;;;;;;13.90;8.15;;;20.90;77.50;;;;;;4957409;28;20122;-79
2023/06/18 08:07:39;;;;;;;12.07;8.48;;;20.80;77.00;;;;;;4956579;29;20038;-79
2023/06/18 08:10:06;;;;;;;14.07;8.88;;;20.90;76.50;;;;;;4957181;29;20446;-78
2023/06/18 08:12:33;;;;;;;13.55;8.98;;;20.90;76.60;;;;;;4956979;29;20502;-79
2023/06/18 08:14:59;;;;;;;13.70;8.02;;;20.90;76.70;;;;;;4957589;29;20753;-79
2023/06/18 08:17:24;;;;;;;13.75;8.05;;;21.00;76.70;;;;;;4954580;29;20103;-79
2023/06/18 08:19:50;;;;;;;13.02;8.75;;;21.00;76.60;;;;;;4956422;29;20027;-79
2023/06/18 08:22:17;;;;;;;13.57;8.57;;;20.90;77.00;;;;;;4940346;29;20062;-77
2023/06/18 08:24:43;;;;;;;12.82;8.07;;;20.90;76.90;;;;;;4950047;28;20023;-80
2023/06/18 08:27:09;;;;;;;10.93;7.43;;;20.80;77.00;;;;;;4968231;28;20027;-81
2023/06/18 08:29:35;;;;;;;12.02;6.65;;;20.70;77.00;;;;;;4948035;28;20027;-81
2023/06/18 08:32:04;;;;;;;13.60;7.35;;;20.40;78.10;;;;;;4944035;28;20174;-81
2023/06/18 08:34:34;;;;;;;12.10;7.65;;;20.20;78.60;;;;;;4954415;28;20031;-80
2023/06/18 08:37:00;;;;;;;16.88;8.20;;;20.00;79.30;;;;;;4946427;29;20032;-82
2023/06/18 08:39:26;;;;;;;17.38;8.18;;;20.00;79.10;;;;;;4937671;29;20033;-87
2023/06/18 08:41:54;;;;;;;16.48;7.90;;;19.80;80.40;;;;;;4940484;29;20064;-79
2023/06/18 08:44:23;;;;;;;12.30;7.97;;;19.60;87.40;;;;;;4941876;29;20028;-83
2023/06/18 08:46:51;;;;;;;12.73;7.88;;;19.40;87.70;;;;;;4953716;29;20110;-82
2023/06/18 08:49:18;;;;;;;13.90;7.32;;;19.30;87.30;;;;;;4960503;29;20038;-82
2023/06/18 08:51:45;;;;;;;12.82;6.90;;;19.40;86.60;;;;;;4960918;28;20050;-79
2023/06/18 08:54:17;;;;;;;13.63;7.38;;;19.50;85.00;;;;;;4980623;28;20086;-80
2023/06/18 08:56:44;;;;;;;11.63;7.47;;;19.60;83.70;;;;;;4960686;28;20031;-79
2023/06/18 08:59:13;;;;;;;10.07;6.47;;;19.80;82.70;;;;;;4943618;29;20513;-82
2023/06/18 09:01:41;;;;;;;10.73;6.15;;;19.90;81.50;;;;;;4952439;28;20046;-80
2023/06/18 09:04:07;;;;;;;9.35;6.68;;;20.00;81.00;;;;;;4959141;29;20027;-79
2023/06/18 09:06:33;;;;;;;10.25;6.32;;;20.10;80.60;;;;;;4960669;28;20113;-78
2023/06/18 09:09:02;;;;;;;10.80;7.07;;;20.30;80.30;;;;;;4960672;29;20027;-78
2023/06/18 09:11:27;;;;;;;11.13;6.35;;;20.40;80.10;;;;;;4960271;28;20032;-78
2023/06/18 09:13:53;;;;;;;10.88;6.80;;;20.50;78.80;;;;;;4960249;29;20082;-83
2023/06/18 09:16:19;;;;;;;9.52;6.32;;;20.70;78.70;;;;;;4959199;29;20434;-79
2023/06/18 09:18:45;;;;;;;11.77;6.60;;;20.80;78.70;;;;;;4957497;29;20019;-80
2023/06/18 09:21:38;;;;;;;8.98;5.97;;;21.00;77.90;;;;;;4960380;29;20023;-84
2023/06/18 09:24:07;;;;;;;13.02;6.45;;;21.20;77.50;;;;;;4961103;28;20033;-78
2023/06/18 09:26:34;;;;;;;9.90;6.25;;;21.30;77.10;;;;;;4978875;28;20077;-78
2023/06/18 09:29:10;;;;;;;9.57;5.65;;;21.30;76.50;;;;;;4979043;28;20027;-76
2023/06/18 09:31:41;;;;;;;9.55;6.13;;;21.40;76.10;;;;;;4959130;29;20055;-82
2023/06/18 09:34:15;;;;;;;8.18;5.20;;;21.50;76.30;;;;;;4960505;29;20019;-76
2023/06/18 09:36:43;;;;;;;8.48;4.93;;;21.50;76.50;;;;;;4960378;29;20036;-79
2023/06/18 09:39:15;;;;;;;8.48;4.85;;;21.60;75.80;;;;;;4959466;29;20394;-76
2023/06/18 09:41:43;;;;;;;6.93;4.95;;;21.50;75.50;;;;;;4959711;29;20041;-76
2023/06/18 09:44:09;;;;;;;9.02;5.50;;;21.50;75.70;;;;;;4950227;29;20036;-76
2023/06/18 09:46:35;;;;;;;9.63;5.80;;;21.30;76.20;;;;;;4940791;29;20035;-76
2023/06/18 09:49:01;;;;;;;8.77;5.75;;;21.30;76.60;;;;;;4959481;28;20024;-76
2023/06/18 09:51:26;;;;;;;8.82;5.80;;;21.20;76.50;;;;;;4942236;29;20039;-78
2023/06/18 09:53:56;;;;;;;9.35;5.50;;;21.10;76.70;;;;;;4960229;29;20521;-78
2023/06/18 09:56:22;;;;;;;9.07;6.10;;;21.00;76.80;;;;;;4959035;29;20038;-78
2023/06/18 09:58:49;;;;;;;8.57;5.95;;;20.90;76.80;;;;;;4942526;29;20024;-83
2023/06/18 10:01:17;;;;;;;9.52;6.63;;;20.90;76.90;;;;;;4942536;29;20019;-86
2023/06/18 10:03:43;;;;;;;9.23;6.30;;;20.80;77.60;;;;;;4952155;29;20031;-83
2023/06/18 10:06:12;;;;;;;10.52;6.75;;;20.80;77.50;;;;;;4954211;29;20110;-81
2023/06/18 10:08:40;;;;;;;13.90;7.05;;;20.70;77.90;;;;;;4938505;29;20577;-81
2023/06/18 10:11:08;;;;;;;10.77;7.07;;;20.60;78.50;;;;;;4941655;29;20031;-81
2023/06/18 10:13:40;;;;;;;10.55;6.70;;;20.70;77.80;;;;;;4959395;29;20089;-78
2023/06/18 10:16:06;;;;;;;11.63;7.00;;;20.60;77.80;;;;;;4954491;29;20391;-78
2023/06/18 10:18:33;;;;;;;13.10;7.65;;;20.60;78.00;;;;;;4939498;29;20040;-79
2023/06/18 10:21:03;;;;;;;9.95;6.60;;;20.50;78.00;;;;;;4948355;29;20024;-79
2023/06/18 10:23:32;;;;;;;15.70;6.85;;;20.40;78.20;;;;;;4952432;28;20063;-78
2023/06/18 10:25:59;;;;;;;9.02;6.22;;;20.30;78.80;;;;;;4958400;28;20516;-78
2023/06/18 10:28:26;;;;;;;11.07;6.40;;;20.20;78.60;;;;;;4949710;29;20023;-78
2023/06/18 10:30:52;;;;;;;10.60;6.75;;;20.10;79.60;;;;;;4948542;29;20051;-81
2023/06/18 10:33:18;;;;;;;10.15;6.47;;;20.00;79.50;;;;;;4953789;29;20062;-87
2023/06/18 10:35:44;;;;;;;12.35;6.85;;;20.00;79.50;;;;;;4941021;29;20036;-82
2023/06/18 10:38:10;;;;;;;10.20;6.90;;;19.90;80.40;;;;;;4956541;28;20032;-83
2023/06/18 10:40:39;;;;;;;11.07;6.53;;;19.90;80.50;;;;;;4939840;29;20031;-81
2023/06/18 10:43:08;;;;;;;9.90;6.78;;;19.90;80.10;;;;;;4940779;29;20020;-81
2023/06/18 10:45:34;;;;;;;10.65;6.38;;;20.00;80.60;;;;;;4952174;29;20035;-81
2023/06/18 10:48:15;;;;;;;12.40;7.13;;;19.90;80.70;;;;;;4946401;28;20027;-84
2023/06/18 10:51:01;;;;;;;10.82;6.57;;;20.00;80.90;;;;;;4953641;28;20039;-87
2023/06/18 10:53:26;;;;;;;10.82;6.60;;;20.10;80.50;;;;;;4927759;29;20390;-82
2023/06/18 10:55:58;;;;;;;10.07;6.65;;;20.20;80.20;;;;;;4959832;28;20042;-82
2023/06/18 10:58:42;;;;;;;11.68;7.22;;;20.20;79.30;;;;;;4958588;29;20031;-82
2023/06/18 11:01:24;;;;;;;10.68;7.20;;;20.30;80.00;;;;;;4937390;29;20486;-85
2023/06/18 11:04:01;;;;;;;12.82;7.57;;;20.50;79.00;;;;;;4951729;28;20078;-83
2023/06/18 11:06:30;;;;;;;11.13;7.20;;;20.80;78.90;;;;;;4957337;29;20458;-83
2023/06/18 11:08:55;;;;;;;12.77;8.15;;;20.90;78.20;;;;;;4958618;28;20037;-82
2023/06/18 11:11:23;;;;;;;10.93;7.53;;;21.00;78.50;;;;;;4943755;29;20482;-81
2023/06/18 11:13:55;;;;;;;12.95;7.05;;;21.20;77.30;;;;;;4958093;28;20024;-83
2023/06/18 11:16:22;;;;;;;13.75;7.43;;;21.30;76.90;;;;;;4976459;28;20027;-85
2023/06/18 11:18:53;;;;;;;10.18;7.35;;;21.30;78.10;;;;;;4977583;28;20476;-91
2023/06/18 11:21:20;;;;;;;10.48;6.95;;;21.40;77.40;;;;;;4959047;28;20028;-83
2023/06/18 11:23:47;;;;;;;10.20;6.75;;;21.50;76.70;;;;;;4949287;28;20113;-86
2023/06/18 11:26:14;;;;;;;11.02;6.43;;;21.40;76.40;;;;;;4956908;29;20483;-79
2023/06/18 11:28:41;;;;;;;11.82;6.57;;;21.30;76.50;;;;;;4941394;29;20086;-82
2023/06/18 11:31:07;;;;;;;10.68;7.22;;;21.30;77.30;;;;;;4953757;28;20053;-84
2023/06/18 11:33:32;;;;;;;11.57;7.30;;;21.20;77.40;;;;;;4941069;29;20027;-79
2023/06/18 11:36:12;;;;;;;11.65;6.88;;;21.20;78.20;;;;;;4957224;28;20031;-85
2023/06/18 11:38:41;;;;;;;10.82;7.22;;;21.30;77.50;;;;;;4957340;29;20529;-88
2023/06/18 11:41:08;;;;;;;11.40;7.35;;;21.30;77.60;;;;;;4969806;28;20094;-81
2023/06/18 11:43:53;;;;;;;12.23;7.78;;;21.30;77.40;;;;;;4953831;29;20035;-81
2023/06/18 11:46:36;;;;;;;10.18;7.40;;;21.50;77.80;;;;;;4956453;28;20035;-82
2023/06/18 11:49:02;;;;;;;11.15;7.93;;;21.50;77.20;;;;;;4954670;28;20119;-82
2023/06/18 11:51:30;;;;;;;12.25;8.18;;;21.50;77.40;;;;;;4961964;28;20059;-82
2023/06/18 11:53:56;;;;;;;11.82;8.18;;;21.50;77.70;;;;;;4960449;28;20150;-82
2023/06/18 11:56:27;;;;;;;12.95;9.05;;;21.60;77.70;;;;;;4964436;28;20050;-83
2023/06/18 11:58:54;;;;;;;12.90;8.93;;;21.60;77.00;;;;;;4965256;28;20628;-82
2023/06/18 12:01:24;;;;;;;12.40;8.63;;;21.60;77.10;;;;;;4941966;28;20636;-83
2023/06/18 12:03:50;;;;;;;12.82;8.23;;;21.60;77.40;;;;;;4958735;28;20379;-82
2023/06/18 12:06:15;;;;;;;11.48;7.93;;;21.70;77.10;;;;;;4959407;28;20061;-83
2023/06/18 12:08:45;;;;;;;23.80;13.57;;;21.80;76.70;;;;;;4942682;28;20022;-83
2023/06/18 12:11:43;;;;;;;14.45;9.43;;;21.80;76.00;;;;;;4946166;28;20077;-82
2023/06/18 12:14:17;;;;;;;11.55;7.85;;;21.90;76.30;;;;;;4940297;28;20042;-82
2023/06/18 12:16:47;;;;;;;11.02;7.40;;;22.00;75.90;;;;;;4965284;28;20105;-82
2023/06/18 12:19:14;;;;;;;10.50;7.15;;;22.20;75.50;;;;;;4961986;28;20031;-82
2023/06/18 12:21:40;;;;;;;11.85;7.38;;;22.30;75.40;;;;;;4967566;28;20081;-85
2023/06/18 12:24:06;;;;;;;11.45;8.35;;;22.30;75.10;;;;;;4967677;28;20037;-83
2023/06/18 12:26:32;;;;;;;13.88;9.38;;;22.30;75.50;;;;;;4938723;29;20035;-83
2023/06/18 12:28:58;;;;;;;12.65;8.45;;;22.40;75.50;;;;;;4956330;29;20106;-83
2023/06/18 12:31:23;;;;;;;13.60;8.85;;;22.30;75.20;;;;;;4953832;29;20375;-80
2023/06/18 12:33:49;;;;;;;11.23;8.43;;;22.40;75.30;;;;;;4957099;29;20050;-81
2023/06/18 12:36:14;;;;;;;10.48;7.97;;;22.50;75.30;;;;;;4950879;29;20123;-83
2023/06/18 12:38:41;;;;;;;11.45;7.70;;;22.50;75.10;;;;;;4956845;28;20031;-82
2023/06/18 12:41:06;;;;;;;9.73;7.00;;;22.60;74.10;;;;;;4956133;29;20035;-79
2023/06/18 12:43:39;;;;;;;10.07;7.05;;;22.60;73.70;;;;;;4957058;28;20043;-82
2023/06/18 12:46:05;;;;;;;10.25;7.15;;;22.70;74.00;;;;;;4957142;28;20046;-81
2023/06/18 12:48:40;;;;;;;11.10;6.97;;;22.80;73.50;;;;;;4936975;29;20059;-80
2023/06/18 12:51:06;;;;;;;10.23;6.60;;;23.00;72.70;;;;;;4941429;29;20042;-81
2023/06/18 12:53:32;;;;;;;11.13;6.78;;;23.20;73.20;;;;;;4920704;29;20397;-83
2023/06/18 12:56:19;;;;;;;9.45;6.50;;;23.50;73.00;;;;;;4946751;29;20028;-79
2023/06/18 12:58:45;;;;;;;9.55;5.75;;;23.80;72.40;;;;;;4936871;29;20491;-78
2023/06/18 13:01:14;;;;;;;8.65;5.63;;;23.90;70.50;;;;;;4935204;29;20024;-79
2023/06/18 13:03:41;;;;;;;7.43;4.97;;;24.20;71.10;;;;;;4955556;29;20102;-78
2023/06/18 13:06:07;;;;;;;8.55;5.63;;;24.30;69.60;;;;;;4955263;29;20101;-78
2023/06/18 13:08:33;;;;;;;7.78;5.05;;;24.40;69.70;;;;;;4945624;29;20394;-78
2023/06/18 13:10:59;;;;;;;9.18;5.10;;;24.50;70.10;;;;;;4946601;28;20038;-79
2023/06/18 13:13:24;;;;;;;7.20;4.63;;;24.40;70.50;;;;;;4961327;28;20063;-79
2023/06/18 13:15:54;;;;;;;7.60;4.88;;;24.40;69.00;;;;;;4950626;29;20103;-79
2023/06/18 13:18:20;;;;;;;9.10;5.38;;;24.40;70.20;;;;;;4954415;29;20023;-78
2023/06/18 13:20:48;;;;;;;8.02;5.57;;;24.30;69.90;;;;;;4955945;29;20046;-78
2023/06/18 13:23:14;;;;;;;7.40;5.28;;;24.20;69.10;;;;;;4950239;28;20035;-78
2023/06/18 13:25:40;;;;;;;8.48;5.03;;;24.20;70.40;;;;;;4953270;28;20055;-79
2023/06/18 13:28:06;;;;;;;7.50;5.03;;;24.10;69.90;;;;;;4959639;29;20406;-79
2023/06/18 13:30:32;;;;;;;7.88;5.00;;;24.10;70.00;;;;;;4958943;29;20051;-79
2023/06/18 13:32:58;;;;;;;6.25;4.47;;;24.30;70.20;;;;;;4954780;29;20494;-79
2023/06/18 13:35:24;;;;;;;9.60;5.18;;;24.50;69.70;;;;;;4942889;29;20532;-82
2023/06/18 13:37:50;;;;;;;8.10;5.25;;;24.50;69.20;;;;;;4950289;29;20031;-83
2023/06/18 13:40:16;;;;;;;9.30;5.18;;;24.40;66.60;;;;;;4951599;29;20059;-82
2023/06/18 13:42:42;;;;;;;7.57;5.25;;;24.60;66.80;;;;;;4958828;29;20039;-82
2023/06/18 13:45:08;;;;;;;8.02;5.07;;;24.80;66.60;;;;;;4956626;29;20027;-82
2023/06/18 13:47:34;;;;;;;8.07;5.43;;;24.90;67.40;;;;;;4957634;29;20046;-82
2023/06/18 13:50:00;;;;;;;9.32;5.47;;;25.00;65.90;;;;;;4950462;29;20027;-82
2023/06/18 13:52:26;;;;;;;7.60;5.03;;;25.20;66.80;;;;;;4958448;29;20043;-83
2023/06/18 13:54:51;;;;;;;8.05;5.38;;;25.10;66.90;;;;;;4959867;29;20055;-82
2023/06/18 13:57:18;;;;;;;7.97;5.20;;;24.90;66.50;;;;;;4958451;29;20090;-83
2023/06/18 13:59:44;;;;;;;8.55;5.65;;;24.80;66.90;;;;;;4958159;29;20522;-83
2023/06/18 14:02:12;;;;;;;7.68;5.13;;;24.70;66.00;;;;;;4940344;29;20123;-83
2023/06/18 14:04:39;;;;;;;8.75;5.75;;;24.70;65.40;;;;;;4939794;29;20020;-83
2023/06/18 14:07:07;;;;;;;9.75;6.05;;;24.80;66.20;;;;;;4948870;29;20073;-81
2023/06/18 14:09:33;;;;;;;9.40;5.80;;;25.00;66.60;;;;;;4958446;29;20019;-82
2023/06/18 14:11:59;;;;;;;8.60;5.80;;;25.20;64.10;;;;;;4955038;28;20070;-82
2023/06/18 14:14:25;;;;;;;8.07;5.30;;;25.30;64.80;;;;;;4943841;29;20410;-78
2023/06/18 14:16:51;;;;;;;9.35;5.95;;;25.30;63.20;;;;;;4950446;28;20038;-77
2023/06/18 14:19:17;;;;;;;9.23;5.60;;;25.20;64.40;;;;;;4937615;29;20027;-79
2023/06/18 14:21:43;;;;;;;8.50;5.68;;;25.00;63.40;;;;;;4956380;28;20030;-78
2023/06/18 14:24:09;;;;;;;9.00;5.82;;;24.90;65.50;;;;;;4964092;28;20501;-81
2023/06/18 14:26:35;;;;;;;8.57;5.97;;;24.80;65.00;;;;;;4978177;28;20696;-79
2023/06/18 14:29:01;;;;;;;9.90;5.63;;;24.80;66.50;;;;;;4968851;28;20027;-80
2023/06/18 14:31:27;;;;;;;7.32;5.13;;;24.80;64.20;;;;;;4940963;29;20043;-78
2023/06/18 14:33:53;;;;;;;10.15;5.50;;;24.90;64.20;;;;;;4958929;28;20031;-77
2023/06/18 14:36:19;;;;;;;9.95;5.28;;;25.00;65.60;;;;;;4957403;29;20031;-77
2023/06/18 14:38:46;;;;;;;7.25;4.80;;;25.10;64.30;;;;;;4959370;29;20023;-80
2023/06/18 14:41:12;;;;;;;8.27;5.60;;;25.10;64.00;;;;;;4958253;29;20027;-78
2023/06/18 14:43:37;;;;;;;8.23;5.63;;;25.10;63.20;;;;;;4961580;28;20032;-80
2023/06/18 14:46:03;;;;;;;7.72;5.03;;;24.80;62.60;;;;;;4957581;28;20042;-80
2023/06/18 14:48:29;;;;;;;9.02;5.45;;;24.70;64.00;;;;;;4958757;29;20033;-77
2023/06/18 14:50:54;;;;;;;8.43;5.20;;;24.50;62.70;;;;;;4957769;29;20671;-78
2023/06/18 14:53:20;;;;;;;7.05;5.15;;;24.30;63.50;;;;;;4959012;29;20062;-80
2023/06/18 14:55:46;;;;;;;7.65;5.40;;;24.40;63.70;;;;;;4958892;29;20054;-80
2023/06/18 14:58:11;;;;;;;9.00;5.70;;;24.70;64.10;;;;;;4956910;29;20517;-82
2023/06/18 15:00:37;;;;;;;9.20;5.20;;;24.70;63.50;;;;;;4957977;29;20031;-84
2023/06/18 15:03:03;;;;;;;7.90;5.53;;;24.70;60.80;;;;;;4941745;29;20122;-78
2023/06/18 15:05:29;;;;;;;10.23;5.40;;;24.70;61.50;;;;;;4957491;29;20038;-79
2023/06/18 15:07:55;;;;;;;7.80;5.72;;;24.50;62.50;;;;;;4958699;29;20027;-78
2023/06/18 15:10:20;;;;;;;7.90;5.05;;;24.50;63.30;;;;;;4958519;28;20030;-82
2023/06/18 15:12:46;;;;;;;8.98;6.13;;;24.50;62.70;;;;;;4956170;29;20122;-82
2023/06/18 15:15:15;;;;;;;8.95;6.00;;;24.30;62.10;;;;;;4958376;29;20024;-79
2023/06/18 15:17:42;;;;;;;9.30;5.65;;;24.30;61.20;;;;;;4957537;29;20106;-79
2023/06/18 15:20:08;;;;;;;9.07;5.57;;;24.30;62.70;;;;;;4956278;29;20035;-78
2023/06/18 15:22:34;;;;;;;9.13;5.45;;;24.30;62.70;;;;;;4958135;29;20020;-77
2023/06/18 15:24:59;;;;;;;8.45;5.90;;;24.30;62.40;;;;;;4966955;28;20035;-80
2023/06/18 15:27:26;;;;;;;8.20;5.35;;;24.20;62.40;;;;;;4957895;29;20031;-79
2023/06/18 15:29:52;;;;;;;9.48;5.95;;;24.20;62.30;;;;;;4957978;29;20023;-79
2023/06/18 15:32:18;;;;;;;6.95;5.15;;;24.10;63.20;;;;;;4957233;28;20061;-79
2023/06/18 15:34:44;;;;;;;9.30;5.55;;;23.90;63.90;;;;;;4958155;29;20082;-77
2023/06/18 15:37:09;;;;;;;9.30;5.95;;;23.80;63.30;;;;;;4950749;29;20466;-78
2023/06/18 15:39:35;;;;;;;7.90;5.65;;;23.80;64.70;;;;;;4953373;29;20028;-77
2023/06/18 15:42:01;;;;;;;8.18;5.50;;;23.70;64.80;;;;;;4957842;29;20078;-78
2023/06/18 15:44:26;;;;;;;9.18;5.57;;;23.60;65.80;;;;;;4957644;29;20102;-78
2023/06/18 15:46:52;;;;;;;7.97;6.13;;;23.50;65.50;;;;;;4938996;29;20028;-78
2023/06/18 15:49:18;;;;;;;8.93;5.50;;;23.40;65.90;;;;;;4957720;29;20024;-78
2023/06/18 15:51:44;;;;;;;7.82;5.53;;;23.30;66.50;;;;;;4950129;29;20110;-78
2023/06/18 15:54:10;;;;;;;9.23;5.63;;;23.20;67.30;;;;;;4953322;29;20031;-79
2023/06/18 15:56:38;;;;;;;9.13;5.82;;;23.10;67.20;;;;;;4943392;28;20102;-80
2023/06/18 15:59:03;;;;;;;8.60;4.95;;;23.00;67.20;;;;;;4957628;29;20196;-79
2023/06/18 16:01:29;;;;;;;9.52;5.35;;;23.00;67.30;;;;;;4955700;29;20031;-78
2023/06/18 16:03:54;;;;;;;8.25;5.38;;;22.80;67.30;;;;;;4936174;29;20096;-78
2023/06/18 16:06:20;;;;;;;9.43;5.20;;;22.80;68.10;;;;;;4921278;29;20367;-77
2023/06/18 16:08:46;;;;;;;9.40;5.70;;;22.80;69.50;;;;;;4938555;29;20036;-79
2023/06/18 16:11:11;;;;;;;9.52;5.07;;;22.70;72.90;;;;;;4964883;28;20046;-80
2023/06/18 16:13:37;;;;;;;7.90;5.55;;;22.60;74.00;;;;;;4959175;28;20053;-78
2023/06/18 16:16:03;;;;;;;9.45;5.78;;;22.40;74.90;;;;;;4976886;28;20130;-79
2023/06/18 16:18:28;;;;;;;7.53;5.30;;;22.30;75.20;;;;;;4968356;28;20126;-78
2023/06/18 16:20:55;;;;;;;10.45;6.38;;;22.30;75.10;;;;;;4957516;29;20082;-78
2023/06/18 16:23:21;;;;;;;8.68;5.47;;;22.10;75.40;;;;;;4940272;29;20023;-77
2023/06/18 16:25:46;;;;;;;9.10;5.75;;;22.20;75.80;;;;;;4975949;28;20043;-78
2023/06/18 16:28:12;;;;;;;9.60;5.72;;;22.20;75.90;;;;;;4958698;28;20034;-78
2023/06/18 16:30:38;;;;;;;8.30;5.40;;;22.20;75.60;;;;;;4951347;29;20464;-79
2023/06/18 16:33:03;;;;;;;7.00;4.50;;;22.30;75.50;;;;;;4956927;29;20031;-79
2023/06/18 16:35:29;;;;;;;7.53;4.95;;;22.40;75.20;;;;;;4956341;29;20702;-77
2023/06/18 16:37:55;;;;;;;9.45;5.43;;;22.60;74.30;;;;;;4957308;29;20549;-77
2023/06/18 16:40:22;;;;;;;7.97;4.72;;;22.80;74.50;;;;;;4957475;29;20019;-79
2023/06/18 16:42:48;;;;;;;8.35;4.90;;;22.90;74.80;;;;;;4955912;29;20027;-79
2023/06/18 16:45:13;;;;;;;7.78;4.18;;;22.90;73.90;;;;;;4956969;29;20031;-79
2023/06/18 16:47:39;;;;;;;7.57;4.07;;;22.90;72.50;;;;;;4956881;29;20027;-78
2023/06/18 16:50:06;;;;;;;6.90;4.57;;;23.00;70.90;;;;;;4953095;29;20110;-79
2023/06/18 16:52:32;;;;;;;6.40;4.07;;;23.30;71.80;;;;;;4957127;29;20019;-77
2023/06/18 16:54:58;;;;;;;8.52;5.15;;;23.30;72.10;;;;;;4940180;29;20170;-78
2023/06/18 16:57:23;;;;;;;7.35;4.57;;;23.50;71.40;;;;;;4955955;28;20063;-75
2023/06/18 16:59:49;;;;;;;7.28;4.82;;;23.70;71.00;;;;;;4960772;29;20455;-77
2023/06/18 17:02:15;;;;;;;7.35;5.13;;;23.70;70.70;;;;;;4960734;29;20055;-78
2023/06/18 17:04:40;;;;;;;7.95;4.90;;;23.70;70.90;;;;;;4960405;29;20094;-78
2023/06/18 17:07:06;;;;;;;7.97;4.88;;;23.60;70.50;;;;;;4959345;29;20031;-78
2023/06/18 17:09:35;;;;;;;6.70;4.60;;;23.60;71.10;;;;;;4960924;29;20035;-80